Main page
METAR-TAF:

METAR-TAF

Airports :

Ouagadougou Airport

Ouagadougou, Burkina Faso

latitude: 12-21N, longitude: 001-31W, elevation: 316 m

Current weather observation

The report was made 31 minutes ago, at 01:00 UTC
Calm wind
Temperature 28°C
Humidity 20%
Pressure 1007 hPa
Visibility: 8000 m

METAR: DFFD 110100Z 00000KT 8000 NSC 28/03 Q1007 NOSIG

Time: 01:31 (01:31 UTC)

Forecast

The report was made 2 hours and 31 minutes ago, at 23:00 UTC
Forecast valid from 11 at 00 UTC to 12 at 06 UTC
Wind 8 kt from variable directions
Visibility 10 km or more
no clouds below 1500 m and no cumulonimbus

TAF: DFFD 102300Z 1100/1206 VRB08KT CAVOK

Weather observations and forecasts of more than 4000 airports (METAR and TAF reports).

The available stations are represented by yellow and red dots on the map.

Hover mouse over dot to see the name of the station.

Then click to see weather observations and forecasts.

To change the map : click on the green buttons with a black cross to zoom in, on the green button with a dash to zoom out, or on the green arrows for adjacent maps.


METAR-TAF: